FVSY weather

Siyalima Airport
Siyalima, Mashonaland Central Province, Zimbabwe

Public forecast

Using degrees Celsius for public forecast. Weather courtesy of forecast.io.

Closest aviation weather report (METAR) to Siyalima Airport

Closest report is Robert Gabriel Mugabe International Airport, 82.0 nm (151.9 km) SSE. Retrieved 2019/11/17 17:00 UTC (2 hours ago):

FVRG 171700Z 24005KT 9999 TS FEW030CB BKN080 19/15 Q1017 NOSIG

Closest aviation forecast (TAF) to Siyalima Airport

Forecast is more than 12 hours old.

Closest forecast is Robert Gabriel Mugabe International Airport, 82.0 nm (151.9 km) SSE. Retrieved 2019/11/15 12:00 UTC (2 days ago):

TAF FVRG 151000Z 1512/1618 33010KT 9999 FEW040CB BKN090 PROB30 TEMPO 1512/1518 8000 -TSRA FEW040CB BKN050 BECMG 1520/1522 9999 SCT045 BECMG 1602/1604 SCT045 BKN080 BECMG 1608/1612 9999 FEW040CB BKN090 PROB30 TEMPO 1614/1618 8000 -TSRA FEW040CB BKN080